sensor_id;sensor_type;location;lat;lon;timestamp;temperature;humidity
68235;DHT22;55052;52.056;5.296;2023-02-01T00:02:10;6.30;83.70
68235;DHT22;55052;52.056;5.296;2023-02-01T00:04:37;6.30;83.70
68235;DHT22;55052;52.056;5.296;2023-02-01T00:07:04;6.30;83.60
68235;DHT22;55052;52.056;5.296;2023-02-01T00:09:31;6.40;83.60
68235;DHT22;55052;52.056;5.296;2023-02-01T00:11:58;6.40;83.50
68235;DHT22;55052;52.056;5.296;2023-02-01T00:14:28;6.40;83.60
68235;DHT22;55052;52.056;5.296;2023-02-01T00:16:55;6.40;83.50
68235;DHT22;55052;52.056;5.296;2023-02-01T00:19:22;6.40;83.40
68235;DHT22;55052;52.056;5.296;2023-02-01T00:21:49;6.40;83.50
68235;DHT22;55052;52.056;5.296;2023-02-01T00:24:15;6.50;83.60
68235;DHT22;55052;52.056;5.296;2023-02-01T00:26:44;6.50;83.70
68235;DHT22;55052;52.056;5.296;2023-02-01T00:29:14;6.60;83.70
68235;DHT22;55052;52.056;5.296;2023-02-01T00:31:41;6.60;83.80
68235;DHT22;55052;52.056;5.296;2023-02-01T00:34:12;6.70;83.70
68235;DHT22;55052;52.056;5.296;2023-02-01T00:36:40;6.70;83.60
68235;DHT22;55052;52.056;5.296;2023-02-01T00:39:07;6.80;83.50
68235;DHT22;55052;52.056;5.296;2023-02-01T00:41:34;6.80;83.40
68235;DHT22;55052;52.056;5.296;2023-02-01T00:44:01;6.90;83.40
68235;DHT22;55052;52.056;5.296;2023-02-01T00:46:28;6.90;83.20
68235;DHT22;55052;52.056;5.296;2023-02-01T00:48:55;6.90;83.10
68235;DHT22;55052;52.056;5.296;2023-02-01T00:51:25;6.90;83.00
68235;DHT22;55052;52.056;5.296;2023-02-01T00:53:53;7.00;82.90
68235;DHT22;55052;52.056;5.296;2023-02-01T00:56:19;7.00;82.80
68235;DHT22;55052;52.056;5.296;2023-02-01T00:58:46;7.00;82.60
68235;DHT22;55052;52.056;5.296;2023-02-01T01:01:21;7.10;82.50
68235;DHT22;55052;52.056;5.296;2023-02-01T01:03:51;7.10;82.50
68235;DHT22;55052;52.056;5.296;2023-02-01T01:06:21;7.10;82.30
68235;DHT22;55052;52.056;5.296;2023-02-01T01:08:51;7.10;82.20
68235;DHT22;55052;52.056;5.296;2023-02-01T01:11:21;7.10;81.90
68235;DHT22;55052;52.056;5.296;2023-02-01T01:13:49;7.20;81.90
68235;DHT22;55052;52.056;5.296;2023-02-01T01:16:16;7.20;81.80
68235;DHT22;55052;52.056;5.296;2023-02-01T01:18:44;7.20;81.70
68235;DHT22;55052;52.056;5.296;2023-02-01T01:21:13;7.20;81.40
68235;DHT22;55052;52.056;5.296;2023-02-01T01:23:40;7.20;81.10
68235;DHT22;55052;52.056;5.296;2023-02-01T01:26:16;7.30;81.90
68235;DHT22;55052;52.056;5.296;2023-02-01T01:28:43;7.30;81.00
68235;DHT22;55052;52.056;5.296;2023-02-01T01:31:12;7.30;80.90
68235;DHT22;55052;52.056;5.296;2023-02-01T01:33:39;7.30;80.60
68235;DHT22;55052;52.056;5.296;2023-02-01T01:36:07;7.30;80.60
68235;DHT22;55052;52.056;5.296;2023-02-01T01:38:39;7.30;80.40
68235;DHT22;55052;52.056;5.296;2023-02-01T01:41:06;7.30;80.40
68235;DHT22;55052;52.056;5.296;2023-02-01T01:43:58;7.40;80.30
68235;DHT22;55052;52.056;5.296;2023-02-01T01:46:31;7.30;80.10
68235;DHT22;55052;52.056;5.296;2023-02-01T01:49:20;7.30;80.10
68235;DHT22;55052;52.056;5.296;2023-02-01T01:51:51;7.30;79.90
68235;DHT22;55052;52.056;5.296;2023-02-01T01:54:21;7.40;80.00
68235;DHT22;55052;52.056;5.296;2023-02-01T01:56:56;7.40;79.90
68235;DHT22;55052;52.056;5.296;2023-02-01T01:59:24;7.40;80.00
68235;DHT22;55052;52.056;5.296;2023-02-01T02:01:52;7.40;79.90
68235;DHT22;55052;52.056;5.296;2023-02-01T02:04:19;7.40;79.90
68235;DHT22;55052;52.056;5.296;2023-02-01T02:06:51;7.40;79.80
68235;DHT22;55052;52.056;5.296;2023-02-01T02:09:22;7.40;79.80
68235;DHT22;55052;52.056;5.296;2023-02-01T02:11:48;7.40;79.80
68235;DHT22;55052;52.056;5.296;2023-02-01T02:14:17;7.40;79.80
68235;DHT22;55052;52.056;5.296;2023-02-01T02:24:52;7.60;80.00
68235;DHT22;55052;52.056;5.296;2023-02-01T02:36:12;7.70;80.10
68235;DHT22;55052;52.056;5.296;2023-02-01T02:44:23;7.80;80.30
68235;DHT22;55052;52.056;5.296;2023-02-01T02:53:03;7.90;80.20
68235;DHT22;55052;52.056;5.296;2023-02-01T02:55:51;7.90;80.20
68235;DHT22;55052;52.056;5.296;2023-02-01T02:58:19;7.90;80.20
68235;DHT22;55052;52.056;5.296;2023-02-01T03:01:06;7.90;80.20
68235;DHT22;55052;52.056;5.296;2023-02-01T03:03:51;8.00;80.10
68235;DHT22;55052;52.056;5.296;2023-02-01T03:06:41;8.00;80.80
68235;DHT22;55052;52.056;5.296;2023-02-01T03:09:13;8.00;79.80
68235;DHT22;55052;52.056;5.296;2023-02-01T03:11:44;8.00;79.90
68235;DHT22;55052;52.056;5.296;2023-02-01T03:14:33;8.10;79.90
68235;DHT22;55052;52.056;5.296;2023-02-01T03:17:14;8.10;79.80
68235;DHT22;55052;52.056;5.296;2023-02-01T03:19:45;8.10;79.70
68235;DHT22;55052;52.056;5.296;2023-02-01T03:22:22;8.10;79.60
68235;DHT22;55052;52.056;5.296;2023-02-01T03:24:55;8.10;79.60
68235;DHT22;55052;52.056;5.296;2023-02-01T03:30:22;8.10;79.40
68235;DHT22;55052;52.056;5.296;2023-02-01T03:32:50;8.00;79.20
68235;DHT22;55052;52.056;5.296;2023-02-01T03:38:22;8.00;79.00
68235;DHT22;55052;52.056;5.296;2023-02-01T03:43:57;8.00;78.90
68235;DHT22;55052;52.056;5.296;2023-02-01T03:46:31;7.90;79.00
68235;DHT22;55052;52.056;5.296;2023-02-01T03:49:02;7.90;79.00
68235;DHT22;55052;52.056;5.296;2023-02-01T03:51:32;7.90;78.70
68235;DHT22;55052;52.056;5.296;2023-02-01T03:54:01;7.90;78.90
68235;DHT22;55052;52.056;5.296;2023-02-01T03:56:29;7.90;78.90
68235;DHT22;55052;52.056;5.296;2023-02-01T03:58:57;7.90;78.90
68235;DHT22;55052;52.056;5.296;2023-02-01T04:01:30;7.90;79.00
68235;DHT22;55052;52.056;5.296;2023-02-01T04:03:57;7.90;79.00
68235;DHT22;55052;52.056;5.296;2023-02-01T04:06:25;7.90;78.90
68235;DHT22;55052;52.056;5.296;2023-02-01T04:08:51;7.90;79.10
68235;DHT22;55052;52.056;5.296;2023-02-01T04:11:18;7.90;79.10
68235;DHT22;55052;52.056;5.296;2023-02-01T04:13:45;7.90;79.20
68235;DHT22;55052;52.056;5.296;2023-02-01T04:16:12;7.90;79.20
68235;DHT22;55052;52.056;5.296;2023-02-01T04:18:39;7.90;79.10
68235;DHT22;55052;52.056;5.296;2023-02-01T04:21:06;8.00;79.00
68235;DHT22;55052;52.056;5.296;2023-02-01T04:23:33;8.00;79.10
68235;DHT22;55052;52.056;5.296;2023-02-01T04:26:01;8.00;79.00
68235;DHT22;55052;52.056;5.296;2023-02-01T04:28:28;8.00;78.90
68235;DHT22;55052;52.056;5.296;2023-02-01T04:30:56;8.00;78.90
68235;DHT22;55052;52.056;5.296;2023-02-01T04:33:23;8.00;78.90
68235;DHT22;55052;52.056;5.296;2023-02-01T04:35:50;8.00;78.80
68235;DHT22;55052;52.056;5.296;2023-02-01T04:38:16;8.10;78.80
68235;DHT22;55052;52.056;5.296;2023-02-01T04:40:46;8.10;78.70
68235;DHT22;55052;52.056;5.296;2023-02-01T04:43:12;8.10;78.70
68235;DHT22;55052;52.056;5.296;2023-02-01T04:45:39;8.10;78.70
68235;DHT22;55052;52.056;5.296;2023-02-01T04:48:06;8.10;78.50
68235;DHT22;55052;52.056;5.296;2023-02-01T04:50:32;8.10;78.50
68235;DHT22;55052;52.056;5.296;2023-02-01T04:52:59;8.10;78.50
68235;DHT22;55052;52.056;5.296;2023-02-01T04:55:26;8.10;78.30
68235;DHT22;55052;52.056;5.296;2023-02-01T04:57:53;8.10;78.30
68235;DHT22;55052;52.056;5.296;2023-02-01T05:00:20;8.10;78.30
68235;DHT22;55052;52.056;5.296;2023-02-01T05:02:47;8.10;78.30
68235;DHT22;55052;52.056;5.296;2023-02-01T05:05:13;8.00;78.30
68235;DHT22;55052;52.056;5.296;2023-02-01T05:07:40;8.10;78.40
68235;DHT22;55052;52.056;5.296;2023-02-01T05:10:08;8.10;78.30
68235;DHT22;55052;52.056;5.296;2023-02-01T05:12:34;8.00;78.40
68235;DHT22;55052;52.056;5.296;2023-02-01T05:15:20;8.10;78.40
68235;DHT22;55052;52.056;5.296;2023-02-01T05:17:46;8.00;78.40
68235;DHT22;55052;52.056;5.296;2023-02-01T05:20:13;8.00;78.50
68235;DHT22;55052;52.056;5.296;2023-02-01T05:22:41;8.00;78.50
68235;DHT22;55052;52.056;5.296;2023-02-01T05:25:08;8.00;78.50
68235;DHT22;55052;52.056;5.296;2023-02-01T05:27:35;8.00;78.70
68235;DHT22;55052;52.056;5.296;2023-02-01T05:30:04;8.00;78.80
68235;DHT22;55052;52.056;5.296;2023-02-01T05:32:31;8.00;78.70
68235;DHT22;55052;52.056;5.296;2023-02-01T05:34:58;8.00;78.60
68235;DHT22;55052;52.056;5.296;2023-02-01T05:37:25;7.90;78.70
68235;DHT22;55052;52.056;5.296;2023-02-01T05:39:52;7.90;78.70
68235;DHT22;55052;52.056;5.296;2023-02-01T05:42:19;7.90;78.80
68235;DHT22;55052;52.056;5.296;2023-02-01T05:44:46;7.90;78.90
68235;DHT22;55052;52.056;5.296;2023-02-01T05:47:13;7.90;79.00
68235;DHT22;55052;52.056;5.296;2023-02-01T05:49:39;7.90;79.00
68235;DHT22;55052;52.056;5.296;2023-02-01T05:52:06;7.90;79.00
68235;DHT22;55052;52.056;5.296;2023-02-01T05:54:33;7.90;79.10
68235;DHT22;55052;52.056;5.296;2023-02-01T05:56:59;7.90;79.20
68235;DHT22;55052;52.056;5.296;2023-02-01T05:59:26;7.90;79.30
68235;DHT22;55052;52.056;5.296;2023-02-01T06:01:53;7.90;79.30
68235;DHT22;55052;52.056;5.296;2023-02-01T06:04:20;7.90;79.30
68235;DHT22;55052;52.056;5.296;2023-02-01T06:06:46;7.90;79.30
68235;DHT22;55052;52.056;5.296;2023-02-01T06:09:14;7.90;79.30
68235;DHT22;55052;52.056;5.296;2023-02-01T06:11:40;7.90;79.40
68235;DHT22;55052;52.056;5.296;2023-02-01T06:14:07;7.90;79.30
68235;DHT22;55052;52.056;5.296;2023-02-01T06:16:34;7.90;79.40
68235;DHT22;55052;52.056;5.296;2023-02-01T06:19:01;7.90;79.50
68235;DHT22;55052;52.056;5.296;2023-02-01T06:21:28;7.90;79.40
68235;DHT22;55052;52.056;5.296;2023-02-01T06:23:55;7.90;79.40
68235;DHT22;55052;52.056;5.296;2023-02-01T06:26:24;7.90;79.50
68235;DHT22;55052;52.056;5.296;2023-02-01T06:28:50;7.90;79.60
68235;DHT22;55052;52.056;5.296;2023-02-01T06:31:17;7.90;79.60
68235;DHT22;55052;52.056;5.296;2023-02-01T06:33:44;7.90;79.60
68235;DHT22;55052;52.056;5.296;2023-02-01T06:36:13;7.90;79.60
68235;DHT22;55052;52.056;5.296;2023-02-01T06:38:41;7.80;79.60
68235;DHT22;55052;52.056;5.296;2023-02-01T06:41:09;7.80;79.70
68235;DHT22;55052;52.056;5.296;2023-02-01T06:43:36;7.80;79.80
68235;DHT22;55052;52.056;5.296;2023-02-01T06:46:06;7.80;79.80
68235;DHT22;55052;52.056;5.296;2023-02-01T06:48:34;7.80;79.90
68235;DHT22;55052;52.056;5.296;2023-02-01T06:51:01;7.80;79.90
68235;DHT22;55052;52.056;5.296;2023-02-01T06:53:27;7.80;79.90
68235;DHT22;55052;52.056;5.296;2023-02-01T06:55:59;7.80;80.00
68235;DHT22;55052;52.056;5.296;2023-02-01T06:58:31;7.70;80.00
68235;DHT22;55052;52.056;5.296;2023-02-01T07:01:04;7.70;80.00
68235;DHT22;55052;52.056;5.296;2023-02-01T07:03:31;7.70;80.10
68235;DHT22;55052;52.056;5.296;2023-02-01T07:05:58;7.70;80.20
68235;DHT22;55052;52.056;5.296;2023-02-01T07:08:27;7.80;80.40
68235;DHT22;55052;52.056;5.296;2023-02-01T07:10:54;7.80;80.40
68235;DHT22;55052;52.056;5.296;2023-02-01T07:13:21;7.80;80.50
68235;DHT22;55052;52.056;5.296;2023-02-01T07:15:48;7.80;80.50
68235;DHT22;55052;52.056;5.296;2023-02-01T07:18:15;7.80;80.40
68235;DHT22;55052;52.056;5.296;2023-02-01T07:20:42;7.80;80.40
68235;DHT22;55052;52.056;5.296;2023-02-01T07:23:13;7.80;80.50
68235;DHT22;55052;52.056;5.296;2023-02-01T07:25:39;7.90;80.50
68235;DHT22;55052;52.056;5.296;2023-02-01T07:28:06;7.90;80.50
68235;DHT22;55052;52.056;5.296;2023-02-01T07:30:33;7.90;80.50
68235;DHT22;55052;52.056;5.296;2023-02-01T07:33:00;7.90;80.40
68235;DHT22;55052;52.056;5.296;2023-02-01T07:35:28;7.90;80.30
68235;DHT22;55052;52.056;5.296;2023-02-01T07:37:57;7.90;80.40
68235;DHT22;55052;52.056;5.296;2023-02-01T07:40:24;7.90;80.30
68235;DHT22;55052;52.056;5.296;2023-02-01T07:42:57;7.90;80.20
68235;DHT22;55052;52.056;5.296;2023-02-01T07:45:25;7.90;80.30
68235;DHT22;55052;52.056;5.296;2023-02-01T07:47:52;7.90;80.20
68235;DHT22;55052;52.056;5.296;2023-02-01T07:50:19;7.90;80.10
68235;DHT22;55052;52.056;5.296;2023-02-01T07:52:47;7.90;80.10
68235;DHT22;55052;52.056;5.296;2023-02-01T07:55:15;7.90;80.10
68235;DHT22;55052;52.056;5.296;2023-02-01T07:57:42;7.90;80.10
68235;DHT22;55052;52.056;5.296;2023-02-01T08:00:09;7.90;80.00
68235;DHT22;55052;52.056;5.296;2023-02-01T08:03:00;7.90;80.10
68235;DHT22;55052;52.056;5.296;2023-02-01T08:05:27;7.90;80.10
68235;DHT22;55052;52.056;5.296;2023-02-01T08:07:54;7.90;80.10
68235;DHT22;55052;52.056;5.296;2023-02-01T08:10:20;7.90;80.10
68235;DHT22;55052;52.056;5.296;2023-02-01T08:12:48;7.90;80.20
68235;DHT22;55052;52.056;5.296;2023-02-01T08:15:15;7.90;81.00
68235;DHT22;55052;52.056;5.296;2023-02-01T08:17:49;7.90;80.20
68235;DHT22;55052;52.056;5.296;2023-02-01T08:20:17;8.00;80.20
68235;DHT22;55052;52.056;5.296;2023-02-01T08:22:44;7.90;80.20
68235;DHT22;55052;52.056;5.296;2023-02-01T08:25:11;7.90;80.20
68235;DHT22;55052;52.056;5.296;2023-02-01T08:27:38;7.90;80.30
68235;DHT22;55052;52.056;5.296;2023-02-01T08:30:06;7.90;80.30
68235;DHT22;55052;52.056;5.296;2023-02-01T08:32:34;7.90;80.30
68235;DHT22;55052;52.056;5.296;2023-02-01T08:35:01;7.90;80.30
68235;DHT22;55052;52.056;5.296;2023-02-01T08:37:28;7.90;80.30
68235;DHT22;55052;52.056;5.296;2023-02-01T08:39:55;7.90;80.30
68235;DHT22;55052;52.056;5.296;2023-02-01T08:42:22;7.90;80.40
68235;DHT22;55052;52.056;5.296;2023-02-01T08:45:08;7.90;80.30
68235;DHT22;55052;52.056;5.296;2023-02-01T08:47:35;8.00;80.40
68235;DHT22;55052;52.056;5.296;2023-02-01T08:50:02;8.00;80.50
68235;DHT22;55052;52.056;5.296;2023-02-01T08:52:29;8.00;80.50
68235;DHT22;55052;52.056;5.296;2023-02-01T08:54:56;8.00;80.50
68235;DHT22;55052;52.056;5.296;2023-02-01T08:57:22;8.10;80.70
68235;DHT22;55052;52.056;5.296;2023-02-01T08:59:49;8.10;80.70
68235;DHT22;55052;52.056;5.296;2023-02-01T09:02:17;8.10;80.70
68235;DHT22;55052;52.056;5.296;2023-02-01T09:04:43;8.20;80.70
68235;DHT22;55052;52.056;5.296;2023-02-01T09:07:11;8.20;80.60
68235;DHT22;55052;52.056;5.296;2023-02-01T09:09:39;8.20;80.50
68235;DHT22;55052;52.056;5.296;2023-02-01T09:12:06;8.30;80.60
68235;DHT22;55052;52.056;5.296;2023-02-01T09:14:33;8.40;80.60
68235;DHT22;55052;52.056;5.296;2023-02-01T09:17:00;8.40;80.40
68235;DHT22;55052;52.056;5.296;2023-02-01T09:19:27;8.40;80.40
68235;DHT22;55052;52.056;5.296;2023-02-01T09:21:54;8.50;80.40
68235;DHT22;55052;52.056;5.296;2023-02-01T09:24:20;8.50;80.30
68235;DHT22;55052;52.056;5.296;2023-02-01T09:26:47;8.50;80.20
68235;DHT22;55052;52.056;5.296;2023-02-01T09:29:14;8.60;80.10
68235;DHT22;55052;52.056;5.296;2023-02-01T09:31:42;8.60;80.00
68235;DHT22;55052;52.056;5.296;2023-02-01T09:34:23;8.70;79.80
68235;DHT22;55052;52.056;5.296;2023-02-01T09:36:49;8.70;79.70
68235;DHT22;55052;52.056;5.296;2023-02-01T09:39:16;8.70;79.70
68235;DHT22;55052;52.056;5.296;2023-02-01T09:42:05;8.80;79.50
68235;DHT22;55052;52.056;5.296;2023-02-01T09:44:48;8.80;79.30
68235;DHT22;55052;52.056;5.296;2023-02-01T09:47:22;8.80;79.20
68235;DHT22;55052;52.056;5.296;2023-02-01T09:49:55;8.80;79.20
68235;DHT22;55052;52.056;5.296;2023-02-01T09:52:31;8.80;79.10
68235;DHT22;55052;52.056;5.296;2023-02-01T09:55:03;8.80;79.10
68235;DHT22;55052;52.056;5.296;2023-02-01T09:57:43;8.80;79.00
68235;DHT22;55052;52.056;5.296;2023-02-01T10:00:18;8.80;78.90
68235;DHT22;55052;52.056;5.296;2023-02-01T10:02:46;8.80;78.80
68235;DHT22;55052;52.056;5.296;2023-02-01T10:05:26;8.80;78.90
68235;DHT22;55052;52.056;5.296;2023-02-01T10:08:07;8.90;79.00
68235;DHT22;55052;52.056;5.296;2023-02-01T10:10:46;8.80;78.90
68235;DHT22;55052;52.056;5.296;2023-02-01T10:16:02;8.80;78.70
68235;DHT22;55052;52.056;5.296;2023-02-01T10:26:39;8.80;78.90
68235;DHT22;55052;52.056;5.296;2023-02-01T10:29:19;8.70;79.30
68235;DHT22;55052;52.056;5.296;2023-02-01T10:31:46;8.70;79.60
68235;DHT22;55052;52.056;5.296;2023-02-01T10:34:26;8.60;79.80
68235;DHT22;55052;52.056;5.296;2023-02-01T10:37:00;8.60;80.10
68235;DHT22;55052;52.056;5.296;2023-02-01T10:39:27;8.50;80.30
68235;DHT22;55052;52.056;5.296;2023-02-01T10:41:55;8.50;80.50
68235;DHT22;55052;52.056;5.296;2023-02-01T10:44:27;8.50;80.70
68235;DHT22;55052;52.056;5.296;2023-02-01T10:46:55;8.50;80.90
68235;DHT22;55052;52.056;5.296;2023-02-01T10:49:32;8.50;80.80
68235;DHT22;55052;52.056;5.296;2023-02-01T10:52:29;8.50;80.80
68235;DHT22;55052;52.056;5.296;2023-02-01T10:54:51;8.50;80.80
68235;DHT22;55052;52.056;5.296;2023-02-01T10:57:22;8.50;80.80
68235;DHT22;55052;52.056;5.296;2023-02-01T10:59:51;8.50;80.70
68235;DHT22;55052;52.056;5.296;2023-02-01T11:02:34;8.60;80.80
68235;DHT22;55052;52.056;5.296;2023-02-01T11:05:10;8.60;80.70
68235;DHT22;55052;52.056;5.296;2023-02-01T11:07:39;8.60;80.30
68235;DHT22;55052;52.056;5.296;2023-02-01T11:10:35;8.60;80.10
68235;DHT22;55052;52.056;5.296;2023-02-01T11:13:04;8.70;80.00
68235;DHT22;55052;52.056;5.296;2023-02-01T11:15:31;8.70;79.70
68235;DHT22;55052;52.056;5.296;2023-02-01T11:18:14;8.70;79.70
68235;DHT22;55052;52.056;5.296;2023-02-01T11:20:42;8.70;79.70
68235;DHT22;55052;52.056;5.296;2023-02-01T11:23:15;8.70;80.00
68235;DHT22;55052;52.056;5.296;2023-02-01T11:26:10;8.70;80.40
68235;DHT22;55052;52.056;5.296;2023-02-01T11:28:39;8.70;80.80
68235;DHT22;55052;52.056;5.296;2023-02-01T11:31:12;8.70;80.90
68235;DHT22;55052;52.056;5.296;2023-02-01T11:34:07;8.70;81.10
68235;DHT22;55052;52.056;5.296;2023-02-01T11:36:33;8.70;81.50
68235;DHT22;55052;52.056;5.296;2023-02-01T11:42:13;8.70;81.60
68235;DHT22;55052;52.056;5.296;2023-02-01T11:44:45;8.70;81.40
68235;DHT22;55052;52.056;5.296;2023-02-01T11:47:28;8.70;81.50
68235;DHT22;55052;52.056;5.296;2023-02-01T11:50:01;8.80;81.50
68235;DHT22;55052;52.056;5.296;2023-02-01T11:52:50;8.80;81.40
68235;DHT22;55052;52.056;5.296;2023-02-01T12:03:39;9.00;81.00
68235;DHT22;55052;52.056;5.296;2023-02-01T12:06:49;9.10;80.70
68235;DHT22;55052;52.056;5.296;2023-02-01T12:21:06;9.30;79.50
68235;DHT22;55052;52.056;5.296;2023-02-01T12:37:27;9.40;78.90
68235;DHT22;55052;52.056;5.296;2023-02-01T12:39:32;9.30;78.60
68235;DHT22;55052;52.056;5.296;2023-02-01T12:42:36;9.40;78.60
68235;DHT22;55052;52.056;5.296;2023-02-01T12:45:36;9.40;78.30
68235;DHT22;55052;52.056;5.296;2023-02-01T12:48:40;9.40;78.40
68235;DHT22;55052;52.056;5.296;2023-02-01T12:51:13;9.40;78.20
68235;DHT22;55052;52.056;5.296;2023-02-01T12:53:53;9.40;78.50
68235;DHT22;55052;52.056;5.296;2023-02-01T12:56:27;9.40;78.30
68235;DHT22;55052;52.056;5.296;2023-02-01T12:58:58;9.40;78.10
68235;DHT22;55052;52.056;5.296;2023-02-01T13:04:42;9.40;78.00
68235;DHT22;55052;52.056;5.296;2023-02-01T13:07:21;9.50;78.20
68235;DHT22;55052;52.056;5.296;2023-02-01T13:10:07;9.40;78.00
68235;DHT22;55052;52.056;5.296;2023-02-01T13:12:50;9.40;77.90
68235;DHT22;55052;52.056;5.296;2023-02-01T13:15:32;9.50;78.00
68235;DHT22;55052;52.056;5.296;2023-02-01T13:18:03;9.40;78.00
68235;DHT22;55052;52.056;5.296;2023-02-01T13:20:39;9.40;78.00
68235;DHT22;55052;52.056;5.296;2023-02-01T13:23:18;9.50;77.90
68235;DHT22;55052;52.056;5.296;2023-02-01T13:25:50;9.50;77.80
68235;DHT22;55052;52.056;5.296;2023-02-01T13:31:47;9.50;77.90
68235;DHT22;55052;52.056;5.296;2023-02-01T13:45:36;9.60;77.90
68235;DHT22;55052;52.056;5.296;2023-02-01T13:48:19;9.60;77.80
68235;DHT22;55052;52.056;5.296;2023-02-01T13:50:53;9.60;77.80
68235;DHT22;55052;52.056;5.296;2023-02-01T13:53:30;9.60;77.70
68235;DHT22;55052;52.056;5.296;2023-02-01T13:56:03;9.60;77.70
68235;DHT22;55052;52.056;5.296;2023-02-01T13:58:41;9.60;77.50
68235;DHT22;55052;52.056;5.296;2023-02-01T14:03:55;9.60;77.40
68235;DHT22;55052;52.056;5.296;2023-02-01T14:09:33;9.60;77.40
68235;DHT22;55052;52.056;5.296;2023-02-01T14:15:31;9.60;77.60
68235;DHT22;55052;52.056;5.296;2023-02-01T14:17:58;9.60;77.60
68235;DHT22;55052;52.056;5.296;2023-02-01T14:20:44;9.60;77.70
68235;DHT22;55052;52.056;5.296;2023-02-01T14:23:15;9.60;77.70
68235;DHT22;55052;52.056;5.296;2023-02-01T14:25:43;9.60;77.80
68235;DHT22;55052;52.056;5.296;2023-02-01T14:28:12;9.60;77.80
68235;DHT22;55052;52.056;5.296;2023-02-01T14:30:47;9.70;77.70
68235;DHT22;55052;52.056;5.296;2023-02-01T14:33:23;9.60;77.70
68235;DHT22;55052;52.056;5.296;2023-02-01T14:36:11;9.60;77.90
68235;DHT22;55052;52.056;5.296;2023-02-01T14:38:39;9.60;77.80
68235;DHT22;55052;52.056;5.296;2023-02-01T14:47:04;9.70;78.00
68235;DHT22;55052;52.056;5.296;2023-02-01T14:52:34;9.60;78.10
68235;DHT22;55052;52.056;5.296;2023-02-01T14:55:05;9.60;78.10
68235;DHT22;55052;52.056;5.296;2023-02-01T14:57:35;9.60;78.20
68235;DHT22;55052;52.056;5.296;2023-02-01T15:00:28;9.60;78.20
68235;DHT22;55052;52.056;5.296;2023-02-01T15:03:21;9.60;78.30
68235;DHT22;55052;52.056;5.296;2023-02-01T15:05:55;9.60;78.40
68235;DHT22;55052;52.056;5.296;2023-02-01T15:08:35;9.60;78.50
68235;DHT22;55052;52.056;5.296;2023-02-01T15:11:08;9.60;78.60
68235;DHT22;55052;52.056;5.296;2023-02-01T15:13:37;9.60;78.70
68235;DHT22;55052;52.056;5.296;2023-02-01T15:16:13;9.60;78.80
68235;DHT22;55052;52.056;5.296;2023-02-01T15:18:41;9.60;79.00
68235;DHT22;55052;52.056;5.296;2023-02-01T15:21:21;9.60;79.00
68235;DHT22;55052;52.056;5.296;2023-02-01T15:24:14;9.60;79.10
68235;DHT22;55052;52.056;5.296;2023-02-01T15:26:41;9.60;80.00
68235;DHT22;55052;52.056;5.296;2023-02-01T15:29:11;9.60;79.30
68235;DHT22;55052;52.056;5.296;2023-02-01T15:34:08;9.60;79.30
68235;DHT22;55052;52.056;5.296;2023-02-01T15:36:35;9.60;79.40
68235;DHT22;55052;52.056;5.296;2023-02-01T15:39:14;9.60;79.40
68235;DHT22;55052;52.056;5.296;2023-02-01T15:42:11;9.60;79.50
68235;DHT22;55052;52.056;5.296;2023-02-01T15:44:45;9.60;79.40
68235;DHT22;55052;52.056;5.296;2023-02-01T15:47:23;9.60;79.50
68235;DHT22;55052;52.056;5.296;2023-02-01T15:49:55;9.60;79.50
68235;DHT22;55052;52.056;5.296;2023-02-01T15:52:36;9.60;79.60
68235;DHT22;55052;52.056;5.296;2023-02-01T15:55:17;9.70;79.70
68235;DHT22;55052;52.056;5.296;2023-02-01T15:57:45;9.70;79.70
68235;DHT22;55052;52.056;5.296;2023-02-01T16:00:25;9.60;79.50
68235;DHT22;55052;52.056;5.296;2023-02-01T16:02:54;9.70;79.60
68235;DHT22;55052;52.056;5.296;2023-02-01T16:05:42;9.60;79.60
68235;DHT22;55052;52.056;5.296;2023-02-01T16:08:16;9.70;80.40
68235;DHT22;55052;52.056;5.296;2023-02-01T16:10:46;9.70;79.60
68235;DHT22;55052;52.056;5.296;2023-02-01T16:13:14;9.70;79.50
68235;DHT22;55052;52.056;5.296;2023-02-01T16:15:42;9.70;79.50
68235;DHT22;55052;52.056;5.296;2023-02-01T16:18:09;9.70;79.40
68235;DHT22;55052;52.056;5.296;2023-02-01T16:20:39;9.70;79.30
68235;DHT22;55052;52.056;5.296;2023-02-01T16:23:07;9.70;79.30
68235;DHT22;55052;52.056;5.296;2023-02-01T16:25:34;9.70;79.30
68235;DHT22;55052;52.056;5.296;2023-02-01T16:28:01;9.70;79.20
68235;DHT22;55052;52.056;5.296;2023-02-01T16:30:28;9.70;79.20
68235;DHT22;55052;52.056;5.296;2023-02-01T16:32:57;9.70;79.10
68235;DHT22;55052;52.056;5.296;2023-02-01T16:35:33;9.70;79.00
68235;DHT22;55052;52.056;5.296;2023-02-01T16:38:10;9.70;79.00
68235;DHT22;55052;52.056;5.296;2023-02-01T16:40:42;9.80;79.10
68235;DHT22;55052;52.056;5.296;2023-02-01T16:43:27;9.80;79.10
68235;DHT22;55052;52.056;5.296;2023-02-01T16:45:59;9.80;79.00
68235;DHT22;55052;52.056;5.296;2023-02-01T16:48:33;9.80;78.90
68235;DHT22;55052;52.056;5.296;2023-02-01T16:51:02;9.80;78.90
68235;DHT22;55052;52.056;5.296;2023-02-01T16:53:31;9.80;78.80
68235;DHT22;55052;52.056;5.296;2023-02-01T16:56:27;9.80;78.80
68235;DHT22;55052;52.056;5.296;2023-02-01T16:58:55;9.80;78.70
68235;DHT22;55052;52.056;5.296;2023-02-01T17:01:23;9.80;78.90
68235;DHT22;55052;52.056;5.296;2023-02-01T17:03:50;9.80;78.90
68235;DHT22;55052;52.056;5.296;2023-02-01T17:06:20;9.90;78.90
68235;DHT22;55052;52.056;5.296;2023-02-01T17:08:51;9.90;78.90
68235;DHT22;55052;52.056;5.296;2023-02-01T17:11:19;9.90;78.90
68235;DHT22;55052;52.056;5.296;2023-02-01T17:13:47;9.90;78.90
68235;DHT22;55052;52.056;5.296;2023-02-01T17:19:08;9.90;78.80
68235;DHT22;55052;52.056;5.296;2023-02-01T17:21:49;9.90;78.70
68235;DHT22;55052;52.056;5.296;2023-02-01T17:24:20;9.90;78.70
68235;DHT22;55052;52.056;5.296;2023-02-01T17:26:47;9.90;78.70
68235;DHT22;55052;52.056;5.296;2023-02-01T17:29:15;9.90;78.70
68235;DHT22;55052;52.056;5.296;2023-02-01T17:31:45;9.90;78.80
68235;DHT22;55052;52.056;5.296;2023-02-01T17:34:13;10.00;78.80
68235;DHT22;55052;52.056;5.296;2023-02-01T17:36:46;10.00;78.90
68235;DHT22;55052;52.056;5.296;2023-02-01T17:39:14;10.00;79.00
68235;DHT22;55052;52.056;5.296;2023-02-01T17:42:03;10.00;79.00
68235;DHT22;55052;52.056;5.296;2023-02-01T17:44:30;10.00;79.00
68235;DHT22;55052;52.056;5.296;2023-02-01T17:46:57;10.00;78.90
68235;DHT22;55052;52.056;5.296;2023-02-01T17:49:25;10.00;79.10
68235;DHT22;55052;52.056;5.296;2023-02-01T17:51:55;10.00;78.90
68235;DHT22;55052;52.056;5.296;2023-02-01T17:54:22;10.00;78.90
68235;DHT22;55052;52.056;5.296;2023-02-01T17:56:51;10.10;78.90
68235;DHT22;55052;52.056;5.296;2023-02-01T17:59:18;10.10;79.00
68235;DHT22;55052;52.056;5.296;2023-02-01T18:01:45;10.10;78.90
68235;DHT22;55052;52.056;5.296;2023-02-01T18:04:16;10.10;78.90
68235;DHT22;55052;52.056;5.296;2023-02-01T18:06:44;10.10;78.80
68235;DHT22;55052;52.056;5.296;2023-02-01T18:09:11;10.10;78.90
68235;DHT22;55052;52.056;5.296;2023-02-01T18:11:38;10.10;79.20
68235;DHT22;55052;52.056;5.296;2023-02-01T18:14:05;10.10;78.90
68235;DHT22;55052;52.056;5.296;2023-02-01T18:16:33;10.10;79.00
68235;DHT22;55052;52.056;5.296;2023-02-01T18:19:00;10.10;79.00